AFR72KQ LFBO-LFPG
Flight info
| Callsign | AFR72KQ |
|---|---|
| Flight time | 1h 3m |
| Altitude | 34000 |
| Route | FISTO DCT POI/N0430F300 DCT PEPAX UT182 KEPER |
| Aircraft | A320/M-SDE3FGHIRWY/LB1 |
Departure
| Time | 2026-05-05 17:54 |
|---|---|
| Airport | Toulouse-Blagnac Airport (LFBO) |
Arrival
| Time | 2026-05-05 18:57 |
|---|---|
| Airport | Charles de Gaulle International Airport (LFPG) |
| Time | Latitude | Longitude | Altitude | Speed | Heading |
|---|---|---|---|---|---|
| 2026-05-05 17:38 | 43.63272 | 1.36920 | 491 ft | 0 kts | 144° |
| 2026-05-05 17:42 | 43.63282 | 1.36910 | 483 ft | 2 kts | 144° |
| 2026-05-05 17:42 | 43.63295 | 1.36897 | 485 ft | 2 kts | 144° |
| 2026-05-05 17:43 | 43.63309 | 1.36883 | 486 ft | 2 kts | 182° |
| 2026-05-05 17:43 | 43.63324 | 1.36892 | 486 ft | 2 kts | 243° |
| 2026-05-05 17:43 | 43.63325 | 1.36895 | 491 ft | 0 kts | 243° |
| 2026-05-05 17:45 | 43.63315 | 1.36866 | 492 ft | 6 kts | 244° |
| 2026-05-05 17:45 | 43.63290 | 1.36809 | 495 ft | 9 kts | 231° |
| 2026-05-05 17:45 | 43.63207 | 1.36791 | 493 ft | 17 kts | 168° |
| 2026-05-05 17:45 | 43.63087 | 1.36789 | 490 ft | 18 kts | 200° |
| 2026-05-05 17:46 | 43.62989 | 1.36850 | 495 ft | 16 kts | 142° |
| 2026-05-05 17:46 | 43.62886 | 1.36958 | 491 ft | 21 kts | 143° |
| 2026-05-05 17:46 | 43.62762 | 1.37084 | 490 ft | 23 kts | 143° |
| 2026-05-05 17:46 | 43.62629 | 1.37220 | 492 ft | 24 kts | 144° |
| 2026-05-05 17:47 | 43.62487 | 1.37362 | 488 ft | 26 kts | 143° |
| 2026-05-05 17:47 | 43.62344 | 1.37514 | 490 ft | 22 kts | 142° |
| 2026-05-05 17:47 | 43.62236 | 1.37630 | 494 ft | 14 kts | 145° |
| 2026-05-05 17:47 | 43.62145 | 1.37644 | 493 ft | 14 kts | 217° |
| 2026-05-05 17:48 | 43.62083 | 1.37533 | 491 ft | 15 kts | 233° |
| 2026-05-05 17:48 | 43.62016 | 1.37406 | 494 ft | 17 kts | 234° |
| 2026-05-05 17:48 | 43.61955 | 1.37293 | 488 ft | 8 kts | 233° |
| 2026-05-05 17:48 | 43.61953 | 1.37289 | 492 ft | 0 kts | 233° |
| 2026-05-05 17:52 | 43.61952 | 1.37288 | 492 ft | 3 kts | 233° |
| 2026-05-05 17:52 | 43.61923 | 1.37210 | 485 ft | 11 kts | 263° |
| 2026-05-05 17:52 | 43.61969 | 1.37135 | 486 ft | 11 kts | 328° |
| 2026-05-05 17:53 | 43.62032 | 1.37070 | 489 ft | 15 kts | 323° |
| 2026-05-05 17:53 | 43.62308 | 1.36779 | 486 ft | 94 kts | 323° |
| 2026-05-05 17:53 | 43.63013 | 1.36047 | 501 ft | 151 kts | 322° |
| 2026-05-05 17:53 | 43.63926 | 1.35116 | 940 ft | 178 kts | 325° |
| 2026-05-05 17:54 | 43.64944 | 1.34106 | 1641 ft | 181 kts | 321° |
| 2026-05-05 17:54 | 43.65965 | 1.33062 | 2245 ft | 187 kts | 320° |
| 2026-05-05 17:54 | 43.67057 | 1.31909 | 2566 ft | 206 kts | 320° |
| 2026-05-05 17:54 | 43.68214 | 1.30682 | 3207 ft | 212 kts | 320° |
| 2026-05-05 17:55 | 43.69389 | 1.29438 | 4014 ft | 214 kts | 320° |
| 2026-05-05 17:55 | 43.70582 | 1.28179 | 4801 ft | 217 kts | 320° |
| 2026-05-05 17:55 | 43.71832 | 1.26971 | 5561 ft | 223 kts | 331° |
| 2026-05-05 17:55 | 43.73331 | 1.26309 | 6317 ft | 229 kts | 343° |
| 2026-05-05 17:56 | 43.74895 | 1.25793 | 7030 ft | 233 kts | 343° |
| 2026-05-05 17:56 | 43.76492 | 1.25272 | 7749 ft | 238 kts | 344° |
| 2026-05-05 17:56 | 43.78158 | 1.25018 | 8496 ft | 244 kts | 355° |
| 2026-05-05 17:56 | 43.79874 | 1.24969 | 9258 ft | 248 kts | 355° |
| 2026-05-05 17:57 | 43.81616 | 1.24915 | 10019 ft | 252 kts | 355° |
| 2026-05-05 17:57 | 43.83385 | 1.24859 | 10737 ft | 256 kts | 355° |
| 2026-05-05 17:57 | 43.85175 | 1.24804 | 11443 ft | 259 kts | 355° |
| 2026-05-05 17:57 | 43.86992 | 1.24746 | 12160 ft | 262 kts | 355° |
| 2026-05-05 17:58 | 43.88825 | 1.24686 | 12876 ft | 265 kts | 355° |
| 2026-05-05 17:58 | 43.90662 | 1.24625 | 13569 ft | 269 kts | 355° |
| 2026-05-05 17:58 | 43.92601 | 1.24555 | 13883 ft | 290 kts | 355° |
| 2026-05-05 17:58 | 43.94693 | 1.24476 | 14054 ft | 313 kts | 356° |
| 2026-05-05 17:59 | 43.96955 | 1.24392 | 14197 ft | 336 kts | 356° |
| 2026-05-05 17:59 | 43.99373 | 1.24306 | 14317 ft | 358 kts | 356° |
| 2026-05-05 17:59 | 44.01931 | 1.24221 | 14532 ft | 375 kts | 356° |
| 2026-05-05 17:59 | 44.04561 | 1.24138 | 15056 ft | 381 kts | 356° |
| 2026-05-05 18:00 | 44.07232 | 1.24054 | 15636 ft | 386 kts | 356° |
| 2026-05-05 18:00 | 44.09926 | 1.23964 | 16231 ft | 390 kts | 356° |
| 2026-05-05 18:00 | 44.12660 | 1.23869 | 16807 ft | 395 kts | 356° |
| 2026-05-05 18:00 | 44.15417 | 1.23774 | 17399 ft | 399 kts | 356° |
| 2026-05-05 18:01 | 44.18205 | 1.23678 | 17990 ft | 403 kts | 356° |
| 2026-05-05 18:01 | 44.21021 | 1.23582 | 18539 ft | 407 kts | 356° |
| 2026-05-05 18:01 | 44.23865 | 1.23487 | 19054 ft | 411 kts | 356° |
| 2026-05-05 18:01 | 44.26735 | 1.23390 | 19569 ft | 415 kts | 357° |
| 2026-05-05 18:02 | 44.29630 | 1.23293 | 20089 ft | 418 kts | 357° |
| 2026-05-05 18:02 | 44.32514 | 1.23195 | 20589 ft | 422 kts | 357° |
| 2026-05-05 18:02 | 44.35459 | 1.23093 | 21086 ft | 425 kts | 357° |
| 2026-05-05 18:02 | 44.38432 | 1.22990 | 21570 ft | 429 kts | 357° |
| 2026-05-05 18:03 | 44.41433 | 1.22886 | 22046 ft | 432 kts | 357° |
| 2026-05-05 18:03 | 44.44452 | 1.22747 | 22523 ft | 435 kts | 354° |
| 2026-05-05 18:03 | 44.47445 | 1.22109 | 22967 ft | 436 kts | 345° |
| 2026-05-05 18:03 | 44.50371 | 1.20929 | 23406 ft | 439 kts | 341° |
| 2026-05-05 18:04 | 44.53305 | 1.19688 | 23784 ft | 442 kts | 341° |
| 2026-05-05 18:04 | 44.56255 | 1.18441 | 24155 ft | 444 kts | 341° |
| 2026-05-05 18:04 | 44.59224 | 1.17187 | 24519 ft | 446 kts | 341° |
| 2026-05-05 18:04 | 44.62205 | 1.15926 | 24870 ft | 449 kts | 341° |
| 2026-05-05 18:05 | 44.65202 | 1.14657 | 25214 ft | 451 kts | 341° |
| 2026-05-05 18:05 | 44.68213 | 1.13380 | 25603 ft | 453 kts | 341° |
| 2026-05-05 18:05 | 44.71237 | 1.12098 | 25962 ft | 454 kts | 341° |
| 2026-05-05 18:05 | 44.74260 | 1.10812 | 26480 ft | 449 kts | 341° |
| 2026-05-05 18:06 | 44.77151 | 1.09584 | 27715 ft | 430 kts | 341° |
| 2026-05-05 18:06 | 44.79054 | 1.08776 | 28602 ft | 416 kts | 341° |
| 2026-05-05 18:06 | 44.82605 | 1.07268 | 30279 ft | 389 kts | 341° |
| 2026-05-05 18:06 | 44.85166 | 1.06178 | 30987 ft | 382 kts | 341° |
| 2026-05-05 18:07 | 44.87710 | 1.05091 | 31416 ft | 381 kts | 340° |
| 2026-05-05 18:07 | 44.90252 | 1.04000 | 31749 ft | 383 kts | 340° |
| 2026-05-05 18:07 | 44.92811 | 1.02899 | 32068 ft | 385 kts | 340° |
| 2026-05-05 18:07 | 44.95385 | 1.01790 | 32385 ft | 388 kts | 340° |
| 2026-05-05 18:08 | 44.97975 | 1.00674 | 32698 ft | 390 kts | 340° |
| 2026-05-05 18:08 | 45.00585 | 0.99552 | 33004 ft | 393 kts | 341° |
| 2026-05-05 18:08 | 45.03213 | 0.98423 | 33295 ft | 396 kts | 341° |
| 2026-05-05 18:08 | 45.05856 | 0.97287 | 33590 ft | 398 kts | 341° |
| 2026-05-05 18:09 | 45.08515 | 0.96143 | 33843 ft | 401 kts | 341° |
| 2026-05-05 18:09 | 45.13957 | 0.93792 | 33932 ft | 417 kts | 341° |
| 2026-05-05 18:10 | 45.19633 | 0.91337 | 33927 ft | 435 kts | 341° |
| 2026-05-05 18:10 | 45.25491 | 0.88794 | 33920 ft | 451 kts | 341° |
| 2026-05-05 18:11 | 45.31593 | 0.86146 | 33925 ft | 465 kts | 341° |
| 2026-05-05 18:11 | 45.37827 | 0.83436 | 33928 ft | 470 kts | 341° |
| 2026-05-05 18:12 | 45.44088 | 0.80705 | 33925 ft | 471 kts | 341° |
| 2026-05-05 18:12 | 45.50355 | 0.77962 | 33931 ft | 471 kts | 341° |
| 2026-05-05 18:13 | 45.56617 | 0.75210 | 33928 ft | 471 kts | 342° |
| 2026-05-05 18:13 | 45.62885 | 0.72460 | 33921 ft | 471 kts | 342° |
| 2026-05-05 18:14 | 45.69098 | 0.69734 | 33922 ft | 471 kts | 342° |
| 2026-05-05 18:14 | 45.75358 | 0.66973 | 33912 ft | 471 kts | 342° |
| 2026-05-05 18:15 | 45.81614 | 0.64206 | 33909 ft | 471 kts | 342° |
| 2026-05-05 18:15 | 45.87873 | 0.61431 | 33903 ft | 471 kts | 342° |
| 2026-05-05 18:16 | 45.94129 | 0.58647 | 33898 ft | 471 kts | 342° |
| 2026-05-05 18:16 | 46.00386 | 0.55855 | 33904 ft | 470 kts | 342° |
| 2026-05-05 18:17 | 46.06635 | 0.53054 | 33903 ft | 470 kts | 342° |
| 2026-05-05 18:17 | 46.12879 | 0.50262 | 33900 ft | 470 kts | 342° |
| 2026-05-05 18:18 | 46.19118 | 0.47471 | 33896 ft | 469 kts | 342° |
| 2026-05-05 18:18 | 46.25357 | 0.44666 | 33894 ft | 469 kts | 342° |
| 2026-05-05 18:19 | 46.31591 | 0.41855 | 33894 ft | 469 kts | 342° |
| 2026-05-05 18:19 | 46.37761 | 0.39069 | 33876 ft | 459 kts | 342° |
| 2026-05-05 18:19 | 46.40752 | 0.37709 | 33885 ft | 442 kts | 342° |
| 2026-05-05 18:20 | 46.43641 | 0.36394 | 33887 ft | 434 kts | 342° |
| 2026-05-05 18:20 | 46.49499 | 0.33728 | 33895 ft | 445 kts | 342° |
| 2026-05-05 18:20 | 46.52426 | 0.32400 | 33886 ft | 434 kts | 342° |
| 2026-05-05 18:21 | 46.55311 | 0.31326 | 33892 ft | 424 kts | 351° |
| 2026-05-05 18:21 | 46.61127 | 0.30950 | 33892 ft | 416 kts | 7° |
| 2026-05-05 18:22 | 46.66800 | 0.32491 | 33893 ft | 414 kts | 13° |
| 2026-05-05 18:22 | 46.72440 | 0.34215 | 33890 ft | 414 kts | 13° |
| 2026-05-05 18:23 | 46.78080 | 0.35952 | 33886 ft | 415 kts | 13° |
| 2026-05-05 18:23 | 46.83731 | 0.37679 | 33879 ft | 415 kts | 13° |
| 2026-05-05 18:24 | 46.89401 | 0.39432 | 33874 ft | 426 kts | 13° |
| 2026-05-05 18:24 | 46.95305 | 0.41276 | 33863 ft | 442 kts | 13° |
| 2026-05-05 18:25 | 47.00381 | 0.42850 | 33869 ft | 454 kts | 13° |
| 2026-05-05 18:25 | 47.06646 | 0.44579 | 33866 ft | 461 kts | 5° |
| 2026-05-05 18:26 | 47.13048 | 0.44058 | 33865 ft | 463 kts | 351° |
| 2026-05-05 18:26 | 47.19412 | 0.42495 | 33859 ft | 463 kts | 351° |
| 2026-05-05 18:27 | 47.25749 | 0.40958 | 33877 ft | 460 kts | 352° |
| 2026-05-05 18:27 | 47.32031 | 0.39428 | 33882 ft | 460 kts | 352° |
| 2026-05-05 18:28 | 47.41185 | 0.37174 | 33612 ft | 424 kts | 352° |
| 2026-05-05 18:28 | 47.44080 | 0.36454 | 33362 ft | 422 kts | 352° |
| 2026-05-05 18:28 | 47.46978 | 0.35739 | 33083 ft | 422 kts | 352° |
| 2026-05-05 18:29 | 47.49879 | 0.35029 | 32459 ft | 426 kts | 353° |
| 2026-05-05 18:29 | 47.52825 | 0.34310 | 31759 ft | 427 kts | 353° |
| 2026-05-05 18:29 | 47.55713 | 0.33598 | 31615 ft | 414 kts | 353° |
| 2026-05-05 18:29 | 47.58525 | 0.32900 | 31294 ft | 407 kts | 353° |
| 2026-05-05 18:30 | 47.61302 | 0.32209 | 30915 ft | 401 kts | 354° |
| 2026-05-05 18:30 | 47.64032 | 0.31523 | 30533 ft | 396 kts | 354° |
| 2026-05-05 18:30 | 47.66733 | 0.30845 | 30140 ft | 391 kts | 354° |
| 2026-05-05 18:30 | 47.69402 | 0.30178 | 29710 ft | 387 kts | 354° |
| 2026-05-05 18:31 | 47.72047 | 0.29519 | 29245 ft | 383 kts | 354° |
| 2026-05-05 18:31 | 47.74666 | 0.28904 | 28751 ft | 378 kts | 358° |
| 2026-05-05 18:31 | 47.77269 | 0.28778 | 28301 ft | 371 kts | 7° |
| 2026-05-05 18:31 | 47.79748 | 0.29572 | 27847 ft | 360 kts | 26° |
| 2026-05-05 18:32 | 47.81953 | 0.31282 | 27366 ft | 356 kts | 31° |
| 2026-05-05 18:32 | 47.84082 | 0.33060 | 26892 ft | 354 kts | 31° |
| 2026-05-05 18:32 | 47.86227 | 0.34863 | 26428 ft | 353 kts | 31° |
| 2026-05-05 18:32 | 47.88359 | 0.36655 | 25973 ft | 351 kts | 31° |
| 2026-05-05 18:33 | 47.90484 | 0.38434 | 25516 ft | 349 kts | 31° |
| 2026-05-05 18:33 | 47.92596 | 0.40200 | 25064 ft | 347 kts | 30° |
| 2026-05-05 18:33 | 47.94652 | 0.42058 | 24617 ft | 345 kts | 36° |
| 2026-05-05 18:33 | 47.96608 | 0.44113 | 24150 ft | 344 kts | 36° |
| 2026-05-05 18:34 | 47.98559 | 0.46165 | 23701 ft | 342 kts | 36° |
| 2026-05-05 18:34 | 48.00502 | 0.48211 | 23242 ft | 341 kts | 35° |
| 2026-05-05 18:34 | 48.02436 | 0.50246 | 22735 ft | 340 kts | 35° |
| 2026-05-05 18:34 | 48.04368 | 0.52277 | 22274 ft | 338 kts | 35° |
| 2026-05-05 18:35 | 48.06294 | 0.54301 | 21737 ft | 339 kts | 35° |
| 2026-05-05 18:35 | 48.08238 | 0.56350 | 21050 ft | 344 kts | 35° |
| 2026-05-05 18:35 | 48.10199 | 0.58418 | 20362 ft | 349 kts | 35° |
| 2026-05-05 18:35 | 48.12225 | 0.60558 | 19431 ft | 363 kts | 35° |
| 2026-05-05 18:36 | 48.14304 | 0.62757 | 18750 ft | 368 kts | 35° |
| 2026-05-05 18:36 | 48.16400 | 0.64976 | 18228 ft | 369 kts | 35° |
| 2026-05-05 18:36 | 48.18499 | 0.67200 | 17648 ft | 370 kts | 35° |
| 2026-05-05 18:36 | 48.20592 | 0.69422 | 17169 ft | 367 kts | 35° |
| 2026-05-05 18:37 | 48.22667 | 0.71623 | 16725 ft | 364 kts | 35° |
| 2026-05-05 18:37 | 48.24719 | 0.73801 | 16373 ft | 358 kts | 35° |
| 2026-05-05 18:37 | 48.26737 | 0.75944 | 15966 ft | 354 kts | 35° |
| 2026-05-05 18:37 | 48.28740 | 0.78075 | 15532 ft | 351 kts | 35° |
| 2026-05-05 18:38 | 48.30727 | 0.80197 | 15090 ft | 349 kts | 36° |
| 2026-05-05 18:38 | 48.32693 | 0.82322 | 14665 ft | 347 kts | 38° |
| 2026-05-05 18:38 | 48.34439 | 0.84803 | 14247 ft | 345 kts | 50° |
| 2026-05-05 18:38 | 48.35769 | 0.87772 | 13813 ft | 342 kts | 63° |
| 2026-05-05 18:39 | 48.36878 | 0.90938 | 13337 ft | 341 kts | 63° |
| 2026-05-05 18:39 | 48.37978 | 0.94078 | 12894 ft | 338 kts | 63° |
| 2026-05-05 18:39 | 48.39050 | 0.97208 | 12472 ft | 335 kts | 63° |
| 2026-05-05 18:39 | 48.40096 | 1.00316 | 12038 ft | 331 kts | 64° |
| 2026-05-05 18:40 | 48.41129 | 1.03397 | 11603 ft | 328 kts | 63° |
| 2026-05-05 18:40 | 48.42155 | 1.06395 | 11182 ft | 325 kts | 63° |
| 2026-05-05 18:40 | 48.43201 | 1.09395 | 10880 ft | 322 kts | 63° |
| 2026-05-05 18:40 | 48.44241 | 1.12361 | 10845 ft | 318 kts | 62° |
| 2026-05-05 18:41 | 48.45275 | 1.15315 | 10859 ft | 319 kts | 62° |
| 2026-05-05 18:41 | 48.46310 | 1.18275 | 10860 ft | 319 kts | 62° |
| 2026-05-05 18:41 | 48.47336 | 1.21224 | 10859 ft | 318 kts | 62° |
| 2026-05-05 18:41 | 48.48360 | 1.24180 | 10859 ft | 319 kts | 62° |
| 2026-05-05 18:42 | 48.49383 | 1.27141 | 10856 ft | 318 kts | 62° |
| 2026-05-05 18:42 | 48.50404 | 1.30097 | 10863 ft | 318 kts | 62° |
| 2026-05-05 18:42 | 48.51430 | 1.33079 | 10853 ft | 321 kts | 63° |
| 2026-05-05 18:42 | 48.52489 | 1.36033 | 10850 ft | 320 kts | 55° |
| 2026-05-05 18:43 | 48.54021 | 1.38465 | 10808 ft | 321 kts | 39° |
| 2026-05-05 18:43 | 48.55750 | 1.40562 | 10561 ft | 317 kts | 39° |
| 2026-05-05 18:43 | 48.57473 | 1.42619 | 10310 ft | 315 kts | 38° |
| 2026-05-05 18:43 | 48.59196 | 1.44664 | 10073 ft | 314 kts | 38° |
| 2026-05-05 18:44 | 48.60909 | 1.46695 | 9832 ft | 311 kts | 38° |
| 2026-05-05 18:44 | 48.62611 | 1.48719 | 9682 ft | 312 kts | 38° |
| 2026-05-05 18:44 | 48.64310 | 1.50745 | 9551 ft | 310 kts | 38° |
| 2026-05-05 18:44 | 48.65990 | 1.52754 | 9415 ft | 307 kts | 38° |
| 2026-05-05 18:45 | 48.67663 | 1.54753 | 9287 ft | 306 kts | 38° |
| 2026-05-05 18:45 | 48.69329 | 1.56749 | 9147 ft | 305 kts | 38° |
| 2026-05-05 18:45 | 48.70969 | 1.58715 | 9014 ft | 305 kts | 38° |
| 2026-05-05 18:45 | 48.72652 | 1.60733 | 8962 ft | 303 kts | 38° |
| 2026-05-05 18:46 | 48.74213 | 1.62830 | 9006 ft | 305 kts | 46° |
| 2026-05-05 18:46 | 48.75551 | 1.65327 | 8954 ft | 306 kts | 55° |
| 2026-05-05 18:46 | 48.76619 | 1.68111 | 8821 ft | 305 kts | 60° |
| 2026-05-05 18:46 | 48.77622 | 1.70943 | 8678 ft | 304 kts | 60° |
| 2026-05-05 18:47 | 48.78629 | 1.73770 | 8562 ft | 304 kts | 60° |
| 2026-05-05 18:47 | 48.79635 | 1.76586 | 8434 ft | 304 kts | 60° |
| 2026-05-05 18:47 | 48.80645 | 1.79415 | 8302 ft | 306 kts | 60° |
| 2026-05-05 18:47 | 48.81661 | 1.82256 | 8172 ft | 305 kts | 59° |
| 2026-05-05 18:48 | 48.82846 | 1.84903 | 8044 ft | 303 kts | 53° |
| 2026-05-05 18:48 | 48.84119 | 1.87466 | 7686 ft | 303 kts | 52° |
| 2026-05-05 18:48 | 48.85386 | 1.89995 | 7265 ft | 298 kts | 52° |
| 2026-05-05 18:48 | 48.86613 | 1.92460 | 6889 ft | 294 kts | 52° |
| 2026-05-05 18:49 | 48.87827 | 1.94930 | 6493 ft | 290 kts | 52° |
| 2026-05-05 18:49 | 48.89002 | 1.97363 | 6095 ft | 279 kts | 53° |
| 2026-05-05 18:49 | 48.90116 | 1.99698 | 5684 ft | 269 kts | 53° |
| 2026-05-05 18:49 | 48.91208 | 2.01988 | 5335 ft | 265 kts | 53° |
| 2026-05-05 18:50 | 48.92278 | 2.04226 | 5098 ft | 258 kts | 53° |
| 2026-05-05 18:50 | 48.93331 | 2.06426 | 4993 ft | 256 kts | 52° |
| 2026-05-05 18:50 | 48.94379 | 2.08623 | 5003 ft | 256 kts | 53° |
| 2026-05-05 18:50 | 48.95427 | 2.10817 | 5009 ft | 257 kts | 53° |
| 2026-05-05 18:51 | 48.96456 | 2.13047 | 5002 ft | 258 kts | 59° |
| 2026-05-05 18:51 | 48.97028 | 2.15620 | 5009 ft | 254 kts | 79° |
| 2026-05-05 18:51 | 48.97192 | 2.18209 | 5004 ft | 237 kts | 84° |
| 2026-05-05 18:51 | 48.97301 | 2.20614 | 4959 ft | 220 kts | 82° |
| 2026-05-05 18:52 | 48.97425 | 2.22895 | 4731 ft | 213 kts | 83° |
| 2026-05-05 18:52 | 48.97551 | 2.25111 | 4475 ft | 206 kts | 83° |
| 2026-05-05 18:52 | 48.97672 | 2.27247 | 4184 ft | 199 kts | 82° |
| 2026-05-05 18:52 | 48.97788 | 2.29298 | 3915 ft | 191 kts | 82° |
| 2026-05-05 18:53 | 48.97898 | 2.31266 | 3656 ft | 183 kts | 82° |
| 2026-05-05 18:53 | 48.98006 | 2.33183 | 3427 ft | 181 kts | 82° |
| 2026-05-05 18:53 | 48.98113 | 2.35090 | 3188 ft | 179 kts | 81° |
| 2026-05-05 18:53 | 48.98217 | 2.36963 | 2943 ft | 175 kts | 81° |
| 2026-05-05 18:54 | 48.98316 | 2.38758 | 2714 ft | 171 kts | 81° |
| 2026-05-05 18:54 | 48.98415 | 2.40545 | 2481 ft | 167 kts | 81° |
| 2026-05-05 18:54 | 48.98509 | 2.42249 | 2261 ft | 159 kts | 81° |
| 2026-05-05 18:54 | 48.98598 | 2.43868 | 2072 ft | 150 kts | 81° |
| 2026-05-05 18:55 | 48.98684 | 2.45425 | 1863 ft | 146 kts | 79° |
| 2026-05-05 18:55 | 48.98769 | 2.46965 | 1663 ft | 146 kts | 79° |
| 2026-05-05 18:55 | 48.98853 | 2.48501 | 1461 ft | 144 kts | 80° |
| 2026-05-05 18:55 | 48.98934 | 2.49995 | 1267 ft | 142 kts | 81° |
| 2026-05-05 18:56 | 48.99016 | 2.51487 | 1062 ft | 141 kts | 82° |
| 2026-05-05 18:56 | 48.99095 | 2.52957 | 852 ft | 139 kts | 81° |
| 2026-05-05 18:56 | 48.99173 | 2.54423 | 648 ft | 138 kts | 81° |
| 2026-05-05 18:56 | 48.99258 | 2.55884 | 484 ft | 139 kts | 81° |
| 2026-05-05 18:57 | 48.99331 | 2.57316 | 359 ft | 127 kts | 81° |
| 2026-05-05 18:57 | 48.99396 | 2.58371 | 353 ft | 60 kts | 87° |
| 2026-05-05 18:57 | 48.99409 | 2.58781 | 353 ft | 33 kts | 85° |
| 2026-05-05 18:57 | 48.99434 | 2.59105 | 354 ft | 29 kts | 79° |
| 2026-05-05 18:58 | 48.99501 | 2.59361 | 360 ft | 24 kts | 66° |
| 2026-05-05 18:58 | 48.99561 | 2.59570 | 357 ft | 18 kts | 68° |
| 2026-05-05 18:58 | 48.99632 | 2.59688 | 354 ft | 15 kts | 12° |
| 2026-05-05 18:58 | 48.99729 | 2.59683 | 358 ft | 13 kts | 355° |
| 2026-05-05 18:59 | 48.99822 | 2.59671 | 356 ft | 13 kts | 355° |
| 2026-05-05 18:59 | 48.99881 | 2.59664 | 354 ft | 4 kts | 355° |
| 2026-05-05 18:59 | 48.99904 | 2.59661 | 363 ft | 3 kts | 355° |
| 2026-05-05 18:59 | 48.99921 | 2.59659 | 362 ft | 2 kts | 355° |
| 2026-05-05 19:00 | 48.99925 | 2.59659 | 354 ft | 0 kts | 355° |
| 2026-05-05 19:00 | 48.99930 | 2.59658 | 354 ft | 5 kts | 355° |
| 2026-05-05 19:00 | 48.99986 | 2.59651 | 354 ft | 8 kts | 355° |
| 2026-05-05 19:01 | 49.00041 | 2.59644 | 358 ft | 8 kts | 355° |
| 2026-05-05 19:01 | 49.00112 | 2.59634 | 354 ft | 13 kts | 355° |
| 2026-05-05 19:01 | 49.00200 | 2.59624 | 354 ft | 12 kts | 356° |
| 2026-05-05 19:01 | 49.00282 | 2.59615 | 360 ft | 11 kts | 356° |
| 2026-05-05 19:02 | 49.00357 | 2.59607 | 354 ft | 10 kts | 356° |
| 2026-05-05 19:02 | 49.00425 | 2.59600 | 358 ft | 9 kts | 356° |
| 2026-05-05 19:02 | 49.00490 | 2.59591 | 354 ft | 11 kts | 353° |
| 2026-05-05 19:02 | 49.00585 | 2.59575 | 357 ft | 14 kts | 354° |
| 2026-05-05 19:03 | 49.00678 | 2.59563 | 354 ft | 15 kts | 355° |
| 2026-05-05 19:03 | 49.00804 | 2.59550 | 357 ft | 18 kts | 357° |
| 2026-05-05 19:03 | 49.00897 | 2.59540 | 354 ft | 12 kts | 354° |
| 2026-05-05 19:03 | 49.00975 | 2.59525 | 354 ft | 11 kts | 343° |
| 2026-05-05 19:04 | 49.01000 | 2.59411 | 354 ft | 16 kts | 265° |
| 2026-05-05 19:04 | 49.00991 | 2.59244 | 354 ft | 15 kts | 265° |
| 2026-05-05 19:04 | 49.00981 | 2.59090 | 361 ft | 14 kts | 259° |
| 2026-05-05 19:04 | 49.00960 | 2.58969 | 358 ft | 10 kts | 256° |
| 2026-05-05 19:05 | 49.00946 | 2.58808 | 354 ft | 22 kts | 265° |
| 2026-05-05 19:05 | 49.00933 | 2.58584 | 354 ft | 18 kts | 264° |
| 2026-05-05 19:05 | 49.00924 | 2.58403 | 359 ft | 16 kts | 266° |
| 2026-05-05 19:05 | 49.00916 | 2.58261 | 354 ft | 11 kts | 264° |
| 2026-05-05 19:06 | 49.00909 | 2.58165 | 361 ft | 10 kts | 264° |
| 2026-05-05 19:06 | 49.00901 | 2.58037 | 354 ft | 12 kts | 264° |
| 2026-05-05 19:06 | 49.00895 | 2.57937 | 361 ft | 7 kts | 265° |
| 2026-05-05 19:06 | 49.00890 | 2.57814 | 354 ft | 16 kts | 262° |
| 2026-05-05 19:07 | 49.00823 | 2.57720 | 356 ft | 11 kts | 199° |
| 2026-05-05 19:07 | 49.00796 | 2.57672 | 356 ft | 7 kts | 253° |
| 2026-05-05 19:07 | 49.00777 | 2.57558 | 359 ft | 4 kts | 210° |
| 2026-05-05 19:07 | 49.00773 | 2.57556 | 358 ft | 3 kts | 201° |
| 2026-05-05 19:08 | 49.00764 | 2.57551 | 354 ft | 4 kts | 201° |
| 2026-05-05 19:08 | 49.00728 | 2.57527 | 359 ft | 4 kts | 205° |
| 2026-05-05 19:08 | 49.00711 | 2.57515 | 355 ft | 3 kts | 205° |
| 2026-05-05 19:08 | 49.00710 | 2.57515 | 354 ft | 0 kts | 205° |